sensor_id;sensor_type;location;lat;lon;timestamp;pressure;altitude;pressure_sealevel;temperature;humidity
72157;BME280;60035;52.122;5.406;2023-04-03T00:00:37;103281.47;;;3.71;73.10
72157;BME280;60035;52.122;5.406;2023-04-03T00:03:04;103288.13;;;3.69;73.16
72157;BME280;60035;52.122;5.406;2023-04-03T00:05:31;103287.97;;;3.64;73.02
72157;BME280;60035;52.122;5.406;2023-04-03T00:07:57;103295.47;;;3.62;73.12
72157;BME280;60035;52.122;5.406;2023-04-03T00:10:24;103296.22;;;3.60;73.14
72157;BME280;60035;52.122;5.406;2023-04-03T00:12:50;103292.78;;;3.58;73.05
72157;BME280;60035;52.122;5.406;2023-04-03T00:15:17;103296.91;;;3.56;73.29
72157;BME280;60035;52.122;5.406;2023-04-03T00:17:43;103301.91;;;3.54;73.59
72157;BME280;60035;52.122;5.406;2023-04-03T00:20:10;103296.75;;;3.51;73.44
72157;BME280;60035;52.122;5.406;2023-04-03T00:22:36;103305.94;;;3.49;73.50
72157;BME280;60035;52.122;5.406;2023-04-03T00:25:03;103297.44;;;3.47;73.50
72157;BME280;60035;52.122;5.406;2023-04-03T00:27:30;103299.91;;;3.45;73.94
72157;BME280;60035;52.122;5.406;2023-04-03T00:29:57;103301.50;;;3.43;73.78
72157;BME280;60035;52.122;5.406;2023-04-03T00:32:23;103290.41;;;3.41;73.96
72157;BME280;60035;52.122;5.406;2023-04-03T00:34:50;103292.91;;;3.40;74.17
72157;BME280;60035;52.122;5.406;2023-04-03T00:37:16;103301.28;;;3.39;74.16
72157;BME280;60035;52.122;5.406;2023-04-03T00:39:42;103297.78;;;3.35;74.35
72157;BME280;60035;52.122;5.406;2023-04-03T00:42:09;103296.91;;;3.34;74.69
72157;BME280;60035;52.122;5.406;2023-04-03T00:47:04;103312.84;;;3.32;74.61
72157;BME280;60035;52.122;5.406;2023-04-03T00:49:31;103307.66;;;3.29;74.97
72157;BME280;60035;52.122;5.406;2023-04-03T00:51:58;103311.00;;;3.28;74.95
72157;BME280;60035;52.122;5.406;2023-04-03T00:54:26;103317.69;;;3.26;75.31
72157;BME280;60035;52.122;5.406;2023-04-03T00:56:54;103315.94;;;3.25;75.47
72157;BME280;60035;52.122;5.406;2023-04-03T00:59:25;103306.44;;;3.19;75.71
72157;BME280;60035;52.122;5.406;2023-04-03T01:01:54;103318.34;;;3.22;75.75
72157;BME280;60035;52.122;5.406;2023-04-03T01:04:38;103318.22;;;3.19;76.00
72157;BME280;60035;52.122;5.406;2023-04-03T01:07:17;103319.88;;;3.18;76.18
72157;BME280;60035;52.122;5.406;2023-04-03T01:09:45;103318.16;;;3.17;76.24
72157;BME280;60035;52.122;5.406;2023-04-03T01:12:30;103313.81;;;3.14;76.66
72157;BME280;60035;52.122;5.406;2023-04-03T01:15:00;103317.88;;;3.11;76.61
72157;BME280;60035;52.122;5.406;2023-04-03T01:17:41;103320.38;;;3.09;76.86
72157;BME280;60035;52.122;5.406;2023-04-03T01:25:40;103322.72;;;3.05;77.32
72157;BME280;60035;52.122;5.406;2023-04-03T01:28:09;103323.50;;;3.04;77.52
72157;BME280;60035;52.122;5.406;2023-04-03T01:30:41;103323.44;;;3.02;78.05
72157;BME280;60035;52.122;5.406;2023-04-03T01:33:09;103324.25;;;3.01;77.88
72157;BME280;60035;52.122;5.406;2023-04-03T01:35:35;103323.31;;;2.99;77.87
72157;BME280;60035;52.122;5.406;2023-04-03T01:38:02;103322.38;;;2.97;78.12
72157;BME280;60035;52.122;5.406;2023-04-03T01:40:28;103317.13;;;2.92;78.38
72157;BME280;60035;52.122;5.406;2023-04-03T01:42:54;103323.84;;;2.92;78.76
72157;BME280;60035;52.122;5.406;2023-04-03T01:45:21;103321.25;;;2.90;78.84
72157;BME280;60035;52.122;5.406;2023-04-03T01:47:48;103311.09;;;2.89;78.89
72157;BME280;60035;52.122;5.406;2023-04-03T01:50:14;103316.81;;;2.85;78.79
72157;BME280;60035;52.122;5.406;2023-04-03T01:52:41;103315.88;;;2.82;79.43
72157;BME280;60035;52.122;5.406;2023-04-03T01:55:08;103310.69;;;2.79;79.80
72157;BME280;60035;52.122;5.406;2023-04-03T01:57:35;103313.22;;;2.79;79.92
72157;BME280;60035;52.122;5.406;2023-04-03T02:00:02;103316.53;;;2.78;79.96
72157;BME280;60035;52.122;5.406;2023-04-03T02:02:28;103318.97;;;2.75;79.99
72157;BME280;60035;52.122;5.406;2023-04-03T02:04:55;103328.06;;;2.72;80.43
72157;BME280;60035;52.122;5.406;2023-04-03T02:07:22;103325.53;;;2.72;80.62
72157;BME280;60035;52.122;5.406;2023-04-03T02:09:48;103328.91;;;2.72;80.56
72157;BME280;60035;52.122;5.406;2023-04-03T02:12:15;103328.91;;;2.72;80.57
72157;BME280;60035;52.122;5.406;2023-04-03T02:14:42;103332.13;;;2.68;80.81
72157;BME280;60035;52.122;5.406;2023-04-03T02:17:08;103337.97;;;2.67;81.18
72157;BME280;60035;52.122;5.406;2023-04-03T02:19:35;103342.97;;;2.65;81.16
72157;BME280;60035;52.122;5.406;2023-04-03T02:22:03;103346.28;;;2.64;81.60
72157;BME280;60035;52.122;5.406;2023-04-03T02:24:30;103342.19;;;2.66;81.62
72157;BME280;60035;52.122;5.406;2023-04-03T02:26:56;103338.78;;;2.66;81.46
72157;BME280;60035;52.122;5.406;2023-04-03T02:29:23;103332.84;;;2.65;81.53
72157;BME280;60035;52.122;5.406;2023-04-03T02:31:50;103335.25;;;2.62;81.49
72157;BME280;60035;52.122;5.406;2023-04-03T02:34:16;103336.72;;;2.57;81.55
72157;BME280;60035;52.122;5.406;2023-04-03T02:36:43;103330.72;;;2.55;81.87
72157;BME280;60035;52.122;5.406;2023-04-03T02:39:10;103330.59;;;2.52;81.93
72157;BME280;60035;52.122;5.406;2023-04-03T02:41:37;103342.28;;;2.50;82.07
72157;BME280;60035;52.122;5.406;2023-04-03T02:44:05;103341.31;;;2.46;82.21
72157;BME280;60035;52.122;5.406;2023-04-03T02:46:32;103342.75;;;2.41;82.25
72157;BME280;60035;52.122;5.406;2023-04-03T02:48:59;103349.38;;;2.39;82.51
72157;BME280;60035;52.122;5.406;2023-04-03T02:51:25;103351.00;;;2.37;82.59
72157;BME280;60035;52.122;5.406;2023-04-03T02:53:52;103348.41;;;2.36;82.77
72157;BME280;60035;52.122;5.406;2023-04-03T02:56:19;103359.38;;;2.36;83.07
72157;BME280;60035;52.122;5.406;2023-04-03T02:58:46;103360.22;;;2.37;83.44
72157;BME280;60035;52.122;5.406;2023-04-03T03:01:13;103362.84;;;2.38;83.45
72157;BME280;60035;52.122;5.406;2023-04-03T03:03:39;103363.66;;;2.37;83.70
72157;BME280;60035;52.122;5.406;2023-04-03T03:06:11;103365.22;;;2.35;83.94
72157;BME280;60035;52.122;5.406;2023-04-03T03:08:38;103371.00;;;2.32;83.88
72157;BME280;60035;52.122;5.406;2023-04-03T03:11:05;103370.09;;;2.30;84.01
72157;BME280;60035;52.122;5.406;2023-04-03T03:13:32;103376.00;;;2.31;84.33
72157;BME280;60035;52.122;5.406;2023-04-03T03:15:59;103377.66;;;2.30;84.57
72157;BME280;60035;52.122;5.406;2023-04-03T03:18:27;103372.63;;;2.30;84.49
72157;BME280;60035;52.122;5.406;2023-04-03T03:20:55;103379.19;;;2.27;84.77
72157;BME280;60035;52.122;5.406;2023-04-03T03:23:24;103377.38;;;2.24;84.98
72157;BME280;60035;52.122;5.406;2023-04-03T03:25:56;103374.72;;;2.21;85.19
72157;BME280;60035;52.122;5.406;2023-04-03T03:28:23;103370.38;;;2.19;85.31
72157;BME280;60035;52.122;5.406;2023-04-03T03:30:50;103382.00;;;2.15;85.48
72157;BME280;60035;52.122;5.406;2023-04-03T03:33:17;103377.66;;;2.12;85.88
72157;BME280;60035;52.122;5.406;2023-04-03T03:35:44;103383.38;;;2.08;86.22
72157;BME280;60035;52.122;5.406;2023-04-03T03:38:10;103376.28;;;2.01;86.22
72157;BME280;60035;52.122;5.406;2023-04-03T03:40:37;103384.63;;;1.98;86.71
72157;BME280;60035;52.122;5.406;2023-04-03T03:43:03;103380.91;;;1.92;87.23
72157;BME280;60035;52.122;5.406;2023-04-03T03:45:30;103384.09;;;1.88;88.21
72157;BME280;60035;52.122;5.406;2023-04-03T03:47:57;103378.09;;;1.86;88.53
72157;BME280;60035;52.122;5.406;2023-04-03T03:50:24;103383.00;;;1.82;89.02
72157;BME280;60035;52.122;5.406;2023-04-03T03:52:50;103388.56;;;1.75;89.70
72157;BME280;60035;52.122;5.406;2023-04-03T03:55:17;103385.91;;;1.72;90.67
72157;BME280;60035;52.122;5.406;2023-04-03T03:57:44;103386.63;;;1.70;91.68
72157;BME280;60035;52.122;5.406;2023-04-03T04:00:10;103388.97;;;1.66;91.82
72157;BME280;60035;52.122;5.406;2023-04-03T04:02:37;103390.50;;;1.63;92.58
72157;BME280;60035;52.122;5.406;2023-04-03T04:05:04;103386.72;;;1.55;93.37
72157;BME280;60035;52.122;5.406;2023-04-03T04:07:30;103380.56;;;1.49;94.20
72157;BME280;60035;52.122;5.406;2023-04-03T04:09:57;103388.06;;;1.48;94.70
72157;BME280;60035;52.122;5.406;2023-04-03T04:12:23;103384.63;;;1.46;95.76
72157;BME280;60035;52.122;5.406;2023-04-03T04:14:50;103388.00;;;1.46;96.07
72157;BME280;60035;52.122;5.406;2023-04-03T04:17:17;103395.19;;;1.39;96.42
72157;BME280;60035;52.122;5.406;2023-04-03T04:19:44;103410.41;;;1.40;97.07
72157;BME280;60035;52.122;5.406;2023-04-03T04:22:10;103399.31;;;1.37;97.41
72157;BME280;60035;52.122;5.406;2023-04-03T04:24:37;103402.63;;;1.36;97.41
72157;BME280;60035;52.122;5.406;2023-04-03T04:27:05;103403.25;;;1.31;97.68
72157;BME280;60035;52.122;5.406;2023-04-03T04:29:31;103400.41;;;1.25;98.00
72157;BME280;60035;52.122;5.406;2023-04-03T04:32:02;103401.81;;;1.20;98.67
72157;BME280;60035;52.122;5.406;2023-04-03T04:34:29;103412.63;;;1.17;99.46
72157;BME280;60035;52.122;5.406;2023-04-03T04:36:56;103404.91;;;1.14;100.00
72157;BME280;60035;52.122;5.406;2023-04-03T04:39:23;103399.09;;;1.15;100.00
72157;BME280;60035;52.122;5.406;2023-04-03T04:41:49;103414.22;;;1.15;100.00
72157;BME280;60035;52.122;5.406;2023-04-03T04:44:16;103411.63;;;1.14;100.00
72157;BME280;60035;52.122;5.406;2023-04-03T04:46:42;103415.16;;;1.17;100.00
72157;BME280;60035;52.122;5.406;2023-04-03T04:49:09;103417.84;;;1.21;100.00
72157;BME280;60035;52.122;5.406;2023-04-03T04:51:35;103413.66;;;1.21;100.00
72157;BME280;60035;52.122;5.406;2023-04-03T04:54:16;103421.50;;;1.26;100.00
72157;BME280;60035;52.122;5.406;2023-04-03T04:56:43;103412.25;;;1.26;100.00
72157;BME280;60035;52.122;5.406;2023-04-03T04:59:09;103416.50;;;1.27;100.00
72157;BME280;60035;52.122;5.406;2023-04-03T05:01:36;103410.75;;;1.30;100.00
72157;BME280;60035;52.122;5.406;2023-04-03T05:04:02;103414.97;;;1.31;100.00
72157;BME280;60035;52.122;5.406;2023-04-03T05:06:29;103421.00;;;1.33;100.00
72157;BME280;60035;52.122;5.406;2023-04-03T05:08:58;103418.63;;;1.36;100.00
72157;BME280;60035;52.122;5.406;2023-04-03T05:11:24;103411.94;;;1.37;100.00
72157;BME280;60035;52.122;5.406;2023-04-03T05:13:52;103422.03;;;1.37;100.00
72157;BME280;60035;52.122;5.406;2023-04-03T05:16:18;103417.75;;;1.36;100.00
72157;BME280;60035;52.122;5.406;2023-04-03T05:18:45;103421.25;;;1.38;100.00
72157;BME280;60035;52.122;5.406;2023-04-03T05:21:11;103424.69;;;1.40;100.00
72157;BME280;60035;52.122;5.406;2023-04-03T05:23:38;103427.28;;;1.41;100.00
72157;BME280;60035;52.122;5.406;2023-04-03T05:26:05;103432.34;;;1.41;100.00
72157;BME280;60035;52.122;5.406;2023-04-03T05:28:32;103426.44;;;1.41;100.00
72157;BME280;60035;52.122;5.406;2023-04-03T05:30:59;103434.94;;;1.43;100.00
72157;BME280;60035;52.122;5.406;2023-04-03T05:33:26;103436.69;;;1.44;100.00
72157;BME280;60035;52.122;5.406;2023-04-03T05:35:54;103440.88;;;1.43;100.00
72157;BME280;60035;52.122;5.406;2023-04-03T05:38:20;103435.09;;;1.46;100.00
72157;BME280;60035;52.122;5.406;2023-04-03T05:40:47;103433.44;;;1.46;100.00
72157;BME280;60035;52.122;5.406;2023-04-03T05:43:14;103435.25;;;1.49;100.00
72157;BME280;60035;52.122;5.406;2023-04-03T05:45:42;103442.81;;;1.49;100.00
72157;BME280;60035;52.122;5.406;2023-04-03T05:48:12;103439.53;;;1.50;100.00
72157;BME280;60035;52.122;5.406;2023-04-03T05:50:39;103448.03;;;1.52;100.00
72157;BME280;60035;52.122;5.406;2023-04-03T05:53:15;103451.56;;;1.56;100.00
72157;BME280;60035;52.122;5.406;2023-04-03T05:55:44;103448.41;;;1.60;100.00
72157;BME280;60035;52.122;5.406;2023-04-03T05:58:11;103461.22;;;1.63;100.00
72157;BME280;60035;52.122;5.406;2023-04-03T06:00:37;103450.28;;;1.64;100.00
72157;BME280;60035;52.122;5.406;2023-04-03T06:03:04;103460.50;;;1.65;100.00
72157;BME280;60035;52.122;5.406;2023-04-03T06:05:32;103466.63;;;1.71;100.00
72157;BME280;60035;52.122;5.406;2023-04-03T06:07:58;103461.75;;;1.74;100.00
72157;BME280;60035;52.122;5.406;2023-04-03T06:10:25;103464.47;;;1.78;100.00
72157;BME280;60035;52.122;5.406;2023-04-03T06:12:51;103469.59;;;1.80;100.00
72157;BME280;60035;52.122;5.406;2023-04-03T06:15:18;103456.44;;;1.86;100.00
72157;BME280;60035;52.122;5.406;2023-04-03T06:17:44;103459.16;;;1.90;100.00
72157;BME280;60035;52.122;5.406;2023-04-03T06:20:11;103464.47;;;1.95;100.00
72157;BME280;60035;52.122;5.406;2023-04-03T06:22:38;103460.44;;;1.98;100.00
72157;BME280;60035;52.122;5.406;2023-04-03T06:25:05;103469.16;;;2.05;100.00
72157;BME280;60035;52.122;5.406;2023-04-03T06:27:32;103461.72;;;2.08;100.00
72157;BME280;60035;52.122;5.406;2023-04-03T06:29:58;103467.09;;;2.14;100.00
72157;BME280;60035;52.122;5.406;2023-04-03T06:32:25;103463.97;;;2.20;100.00
72157;BME280;60035;52.122;5.406;2023-04-03T06:34:52;103471.75;;;2.25;100.00
72157;BME280;60035;52.122;5.406;2023-04-03T06:37:22;103479.59;;;2.29;99.92
72157;BME280;60035;52.122;5.406;2023-04-03T06:40:01;103481.47;;;2.33;99.44
72157;BME280;60035;52.122;5.406;2023-04-03T06:42:29;103475.69;;;2.36;99.01
72157;BME280;60035;52.122;5.406;2023-04-03T06:45:04;103486.94;;;2.43;98.74
72157;BME280;60035;52.122;5.406;2023-04-03T06:47:31;103481.16;;;2.45;98.18
72157;BME280;60035;52.122;5.406;2023-04-03T06:49:57;103482.31;;;2.52;97.63
72157;BME280;60035;52.122;5.406;2023-04-03T06:52:24;103490.34;;;2.61;97.38
72157;BME280;60035;52.122;5.406;2023-04-03T06:55:03;103486.44;;;2.68;97.16
72157;BME280;60035;52.122;5.406;2023-04-03T06:57:30;103494.31;;;2.74;96.26
72157;BME280;60035;52.122;5.406;2023-04-03T06:59:56;103499.50;;;2.77;95.57
72157;BME280;60035;52.122;5.406;2023-04-03T07:02:31;103499.72;;;2.82;95.05
72157;BME280;60035;52.122;5.406;2023-04-03T07:04:58;103503.41;;;2.89;94.43
72157;BME280;60035;52.122;5.406;2023-04-03T07:07:26;103507.94;;;2.96;93.58
72157;BME280;60035;52.122;5.406;2023-04-03T07:09:53;103512.28;;;2.98;92.88
72157;BME280;60035;52.122;5.406;2023-04-03T07:12:20;103502.38;;;3.03;92.10
72157;BME280;60035;52.122;5.406;2023-04-03T07:14:46;103503.50;;;3.10;91.40
72157;BME280;60035;52.122;5.406;2023-04-03T07:17:15;103506.97;;;3.12;90.50
72157;BME280;60035;52.122;5.406;2023-04-03T07:19:42;103515.69;;;3.19;89.73
72157;BME280;60035;52.122;5.406;2023-04-03T07:22:08;103510.13;;;3.26;89.21
72157;BME280;60035;52.122;5.406;2023-04-03T07:24:35;103515.38;;;3.30;88.60
72157;BME280;60035;52.122;5.406;2023-04-03T07:27:03;103508.78;;;3.34;87.46
72157;BME280;60035;52.122;5.406;2023-04-03T07:29:29;103521.06;;;3.44;86.76
72157;BME280;60035;52.122;5.406;2023-04-03T07:31:56;103523.03;;;3.52;85.83
72157;BME280;60035;52.122;5.406;2023-04-03T07:34:23;103520.78;;;3.58;85.26
72157;BME280;60035;52.122;5.406;2023-04-03T07:36:49;103520.09;;;3.62;84.03
72157;BME280;60035;52.122;5.406;2023-04-03T07:39:16;103516.03;;;3.65;83.13
72157;BME280;60035;52.122;5.406;2023-04-03T07:41:42;103525.50;;;3.70;81.76
72157;BME280;60035;52.122;5.406;2023-04-03T07:44:09;103523.16;;;3.74;81.40
72157;BME280;60035;52.122;5.406;2023-04-03T07:46:38;103523.81;;;3.90;81.33
72157;BME280;60035;52.122;5.406;2023-04-03T07:49:05;103528.41;;;3.98;80.64
72157;BME280;60035;52.122;5.406;2023-04-03T07:51:31;103523.56;;;4.05;79.76
72157;BME280;60035;52.122;5.406;2023-04-03T07:53:58;103525.38;;;4.07;78.90
72157;BME280;60035;52.122;5.406;2023-04-03T07:56:25;103533.28;;;4.15;78.73
72157;BME280;60035;52.122;5.406;2023-04-03T07:58:51;103528.75;;;4.27;78.57
72157;BME280;60035;52.122;5.406;2023-04-03T08:01:18;103533.28;;;4.36;77.88
72157;BME280;60035;52.122;5.406;2023-04-03T08:03:44;103527.69;;;4.43;77.15
72157;BME280;60035;52.122;5.406;2023-04-03T08:06:11;103523.72;;;4.50;76.46
72157;BME280;60035;52.122;5.406;2023-04-03T08:08:43;103528.19;;;4.57;75.96
72157;BME280;60035;52.122;5.406;2023-04-03T08:11:09;103520.84;;;4.63;75.56
72157;BME280;60035;52.122;5.406;2023-04-03T08:13:37;103530.41;;;4.71;74.81
72157;BME280;60035;52.122;5.406;2023-04-03T08:16:11;103529.84;;;4.78;73.95
72157;BME280;60035;52.122;5.406;2023-04-03T08:18:38;103529.16;;;4.82;72.71
72157;BME280;60035;52.122;5.406;2023-04-03T08:21:06;103535.09;;;4.82;71.39
72157;BME280;60035;52.122;5.406;2023-04-03T08:23:33;103539.47;;;4.87;71.02
72157;BME280;60035;52.122;5.406;2023-04-03T08:26:06;103544.09;;;4.97;70.54
72157;BME280;60035;52.122;5.406;2023-04-03T08:28:33;103545.31;;;5.07;70.22
72157;BME280;60035;52.122;5.406;2023-04-03T08:31:05;103543.13;;;5.16;68.27
72157;BME280;60035;52.122;5.406;2023-04-03T08:33:33;103550.84;;;5.19;68.20
72157;BME280;60035;52.122;5.406;2023-04-03T08:36:03;103547.78;;;5.28;67.64
72157;BME280;60035;52.122;5.406;2023-04-03T08:38:30;103544.88;;;5.41;66.52
72157;BME280;60035;52.122;5.406;2023-04-03T08:41:35;103561.16;;;5.46;65.07
72157;BME280;60035;52.122;5.406;2023-04-03T08:50:00;103561.16;;;5.71;60.59
72157;BME280;60035;52.122;5.406;2023-04-03T08:55:23;103550.69;;;5.87;60.09
72157;BME280;60035;52.122;5.406;2023-04-03T08:57:57;103556.22;;;5.99;58.69
72157;BME280;60035;52.122;5.406;2023-04-03T09:00:27;103564.03;;;6.06;57.17
72157;BME280;60035;52.122;5.406;2023-04-03T09:02:56;103554.84;;;6.09;56.12
72157;BME280;60035;52.122;5.406;2023-04-03T09:10:33;103537.03;;;6.35;54.79
72157;BME280;60035;52.122;5.406;2023-04-03T09:13:13;103548.28;;;6.42;53.43
72157;BME280;60035;52.122;5.406;2023-04-03T09:15:45;103540.75;;;6.46;52.55
72157;BME280;60035;52.122;5.406;2023-04-03T09:18:19;103538.53;;;6.57;51.79
72157;BME280;60035;52.122;5.406;2023-04-03T09:21:01;103546.31;;;6.60;50.73
72157;BME280;60035;52.122;5.406;2023-04-03T09:23:44;103549.91;;;6.67;48.71
72157;BME280;60035;52.122;5.406;2023-04-03T09:26:42;103548.25;;;6.69;48.05
72157;BME280;60035;52.122;5.406;2023-04-03T09:29:17;103537.34;;;6.73;47.12
72157;BME280;60035;52.122;5.406;2023-04-03T09:31:45;103547.75;;;6.81;47.31
72157;BME280;60035;52.122;5.406;2023-04-03T09:34:18;103540.53;;;6.95;45.86
72157;BME280;60035;52.122;5.406;2023-04-03T09:39:18;103529.88;;;7.08;44.35
72157;BME280;60035;52.122;5.406;2023-04-03T09:44:24;103530.34;;;7.25;43.79
72157;BME280;60035;52.122;5.406;2023-04-03T09:46:51;103523.78;;;7.33;43.82
72157;BME280;60035;52.122;5.406;2023-04-03T09:49:19;103509.72;;;7.48;44.08
72157;BME280;60035;52.122;5.406;2023-04-03T09:51:45;103516.69;;;7.55;41.50
72157;BME280;60035;52.122;5.406;2023-04-03T09:54:32;103513.50;;;7.62;41.85
72157;BME280;60035;52.122;5.406;2023-04-03T09:57:06;103513.78;;;7.73;41.95
72157;BME280;60035;52.122;5.406;2023-04-03T09:59:33;103507.03;;;7.75;40.04
72157;BME280;60035;52.122;5.406;2023-04-03T10:02:03;103503.66;;;7.78;39.47
72157;BME280;60035;52.122;5.406;2023-04-03T10:04:38;103498.94;;;7.92;40.06
72157;BME280;60035;52.122;5.406;2023-04-03T10:07:35;103499.09;;;7.98;39.52
72157;BME280;60035;52.122;5.406;2023-04-03T10:12:41;103487.69;;;8.20;38.75
72157;BME280;60035;52.122;5.406;2023-04-03T10:15:12;103489.63;;;8.30;39.01
72157;BME280;60035;52.122;5.406;2023-04-03T10:17:58;103486.50;;;8.44;37.68
72157;BME280;60035;52.122;5.406;2023-04-03T10:20:43;103487.38;;;8.43;36.58
72157;BME280;60035;52.122;5.406;2023-04-03T10:31:16;103466.03;;;8.79;37.25
72157;BME280;60035;52.122;5.406;2023-04-03T10:39:59;103447.91;;;9.12;36.63
72157;BME280;60035;52.122;5.406;2023-04-03T10:42:46;103445.69;;;9.31;36.35
72157;BME280;60035;52.122;5.406;2023-04-03T10:54:24;103437.34;;;9.93;35.52
72157;BME280;60035;52.122;5.406;2023-04-03T10:56:56;103433.31;;;10.09;35.81
72157;BME280;60035;52.122;5.406;2023-04-03T11:05:02;103420.31;;;10.57;35.53
72157;BME280;60035;52.122;5.406;2023-04-03T11:07:34;103423.97;;;10.77;35.99
72157;BME280;60035;52.122;5.406;2023-04-03T11:10:13;103419.69;;;10.78;35.48
72157;BME280;60035;52.122;5.406;2023-04-03T11:12:48;103421.28;;;10.66;35.25
72157;BME280;60035;52.122;5.406;2023-04-03T11:15:17;103426.41;;;10.65;35.58
72157;BME280;60035;52.122;5.406;2023-04-03T11:18:04;103421.38;;;10.74;35.95
72157;BME280;60035;52.122;5.406;2023-04-03T11:20:36;103413.72;;;10.76;34.87
72157;BME280;60035;52.122;5.406;2023-04-03T11:23:23;103419.56;;;10.65;34.83
72157;BME280;60035;52.122;5.406;2023-04-03T11:26:05;103417.94;;;10.74;35.20
72157;BME280;60035;52.122;5.406;2023-04-03T11:28:33;103408.72;;;10.88;35.44
72157;BME280;60035;52.122;5.406;2023-04-03T11:37:13;103425.22;;;11.16;35.07
72157;BME280;60035;52.122;5.406;2023-04-03T11:39:52;103412.53;;;11.30;35.09
72157;BME280;60035;52.122;5.406;2023-04-03T11:44:46;103409.22;;;11.39;34.57
72157;BME280;60035;52.122;5.406;2023-04-03T11:47:46;103410.00;;;11.33;34.27
72157;BME280;60035;52.122;5.406;2023-04-03T12:18:57;103371.34;;;12.46;33.24
72157;BME280;60035;52.122;5.406;2023-04-03T12:26:28;103365.44;;;12.75;33.15
72157;BME280;60035;52.122;5.406;2023-04-03T12:29:17;103354.31;;;12.74;31.87
72157;BME280;60035;52.122;5.406;2023-04-03T12:40:01;103350.84;;;12.60;33.12
72157;BME280;60035;52.122;5.406;2023-04-03T12:42:47;103336.31;;;12.74;32.38
72157;BME280;60035;52.122;5.406;2023-04-03T12:45:25;103338.00;;;12.71;32.88
72157;BME280;60035;52.122;5.406;2023-04-03T12:47:55;103326.88;;;12.95;33.41
72157;BME280;60035;52.122;5.406;2023-04-03T12:50:25;103318.31;;;12.97;32.72
72157;BME280;60035;52.122;5.406;2023-04-03T12:53:02;103324.31;;;13.23;32.98
72157;BME280;60035;52.122;5.406;2023-04-03T12:55:30;103310.59;;;13.42;32.46
72157;BME280;60035;52.122;5.406;2023-04-03T12:58:13;103324.31;;;13.54;33.37
72157;BME280;60035;52.122;5.406;2023-04-03T13:00:39;103315.75;;;13.36;31.24
72157;BME280;60035;52.122;5.406;2023-04-03T13:03:21;103303.72;;;13.32;33.13
72157;BME280;60035;52.122;5.406;2023-04-03T13:05:50;103297.69;;;13.58;33.68
72157;BME280;60035;52.122;5.406;2023-04-03T13:08:17;103303.72;;;13.50;31.87
72157;BME280;60035;52.122;5.406;2023-04-03T13:10:58;103296.88;;;13.25;32.11
72157;BME280;60035;52.122;5.406;2023-04-03T13:13:25;103304.59;;;13.42;32.76
72157;BME280;60035;52.122;5.406;2023-04-03T13:15:53;103292.56;;;13.42;31.74
72157;BME280;60035;52.122;5.406;2023-04-03T13:18:35;103300.28;;;13.58;32.93
72157;BME280;60035;52.122;5.406;2023-04-03T13:21:23;103300.25;;;13.61;32.27
72157;BME280;60035;52.122;5.406;2023-04-03T13:23:54;103290.88;;;13.37;32.05
72157;BME280;60035;52.122;5.406;2023-04-03T13:26:39;103295.13;;;13.55;32.20
72157;BME280;60035;52.122;5.406;2023-04-03T13:29:15;103286.50;;;13.66;32.15
72157;BME280;60035;52.122;5.406;2023-04-03T13:31:56;103287.34;;;13.76;32.19
72157;BME280;60035;52.122;5.406;2023-04-03T13:34:25;103283.00;;;13.88;31.31
72157;BME280;60035;52.122;5.406;2023-04-03T13:37:00;103287.28;;;13.92;31.83
72157;BME280;60035;52.122;5.406;2023-04-03T13:39:32;103296.75;;;13.90;33.00
72157;BME280;60035;52.122;5.406;2023-04-03T13:42:02;103290.66;;;14.09;31.62
72157;BME280;60035;52.122;5.406;2023-04-03T13:44:40;103289.75;;;14.13;30.90
72157;BME280;60035;52.122;5.406;2023-04-03T13:49:44;103291.25;;;14.52;30.90
72157;BME280;60035;52.122;5.406;2023-04-03T13:52:42;103284.22;;;14.78;32.15
72157;BME280;60035;52.122;5.406;2023-04-03T13:55:28;103281.31;;;15.15;31.54
72157;BME280;60035;52.122;5.406;2023-04-03T13:58:16;103287.06;;;15.45;31.51
72157;BME280;60035;52.122;5.406;2023-04-03T14:00:50;103281.78;;;15.52;28.94
72157;BME280;60035;52.122;5.406;2023-04-03T14:03:55;103287.97;;;15.41;29.94
72157;BME280;60035;52.122;5.406;2023-04-03T14:06:22;103284.41;;;15.50;30.72
72157;BME280;60035;52.122;5.406;2023-04-03T14:08:50;103279.91;;;15.66;29.71
72157;BME280;60035;52.122;5.406;2023-04-03T14:11:22;103271.16;;;15.82;30.18
72157;BME280;60035;52.122;5.406;2023-04-03T14:13:50;103263.91;;;16.09;30.71
72157;BME280;60035;52.122;5.406;2023-04-03T14:16:20;103267.16;;;16.24;30.17
72157;BME280;60035;52.122;5.406;2023-04-03T14:18:48;103257.81;;;16.13;28.01
72157;BME280;60035;52.122;5.406;2023-04-03T14:21:17;103253.78;;;15.92;27.86
72157;BME280;60035;52.122;5.406;2023-04-03T14:23:44;103255.75;;;15.70;28.18
72157;BME280;60035;52.122;5.406;2023-04-03T14:26:14;103241.09;;;15.74;28.12
72157;BME280;60035;52.122;5.406;2023-04-03T14:28:44;103238.13;;;16.06;28.36
72157;BME280;60035;52.122;5.406;2023-04-03T14:31:12;103233.53;;;16.24;27.50
72157;BME280;60035;52.122;5.406;2023-04-03T14:33:39;103239.53;;;16.27;27.55
72157;BME280;60035;52.122;5.406;2023-04-03T14:36:14;103235.19;;;16.28;29.08
72157;BME280;60035;52.122;5.406;2023-04-03T14:38:42;103228.97;;;16.41;27.71
72157;BME280;60035;52.122;5.406;2023-04-03T14:41:15;103230.34;;;16.62;27.55
72157;BME280;60035;52.122;5.406;2023-04-03T14:43:43;103224.50;;;16.49;27.82
72157;BME280;60035;52.122;5.406;2023-04-03T14:46:16;103220.25;;;16.48;28.33
72157;BME280;60035;52.122;5.406;2023-04-03T14:48:44;103224.59;;;16.45;28.77
72157;BME280;60035;52.122;5.406;2023-04-03T14:51:12;103232.88;;;16.65;29.37
72157;BME280;60035;52.122;5.406;2023-04-03T14:53:39;103230.75;;;16.89;28.93
72157;BME280;60035;52.122;5.406;2023-04-03T14:56:33;103225.53;;;16.94;28.62
72157;BME280;60035;52.122;5.406;2023-04-03T14:59:00;103216.44;;;16.70;27.04
72157;BME280;60035;52.122;5.406;2023-04-03T15:01:29;103223.13;;;16.30;27.44